Time;durP1;ratioP1;P1;durP2;ratioP2;P2;SDS_P1;SDS_P2;PMS_P1;PMS_P2;Temp;Humidity;BMP_temperature;BMP_pressure;BME280_temperature;BME280_humidity;BME280_pressure;Samples;Min_cycle;Max_cycle;Signal;HPM_P1;HPM_P2
2021/01/22 00:00:22;;;;;;;13.65;4.80;;;13.20;99.90;;;;;;5036944;28;20452;-60
2021/01/22 00:02:49;;;;;;;13.70;4.97;;;13.20;99.90;;;;;;5036769;28;20136;-60
2021/01/22 00:05:17;;;;;;;17.05;6.40;;;13.20;99.90;;;;;;5036854;28;20060;-60
2021/01/22 00:07:46;;;;;;;18.55;5.75;;;13.20;99.90;;;;;;5035687;28;20073;-60
2021/01/22 00:10:13;;;;;;;20.73;5.90;;;13.20;99.90;;;;;;5036710;28;20045;-61
2021/01/22 00:12:41;;;;;;;12.13;5.45;;;13.20;99.90;;;;;;5036487;28;20049;-61
2021/01/22 00:15:09;;;;;;;14.27;5.50;;;13.20;99.90;;;;;;5035590;28;20543;-61
2021/01/22 00:17:36;;;;;;;19.30;6.93;;;13.20;99.90;;;;;;5036624;28;20052;-61
2021/01/22 00:20:05;;;;;;;22.35;7.25;;;13.20;99.90;;;;;;5035908;28;20057;-60
2021/01/22 00:22:33;;;;;;;18.08;4.60;;;13.20;99.90;;;;;;5036541;28;20483;-60
2021/01/22 00:25:00;;;;;;;18.90;6.85;;;13.20;99.90;;;;;;5036328;28;20136;-60
2021/01/22 00:27:27;;;;;;;10.82;4.43;;;13.30;99.90;;;;;;5036481;28;20049;-61
2021/01/22 00:29:54;;;;;;;17.33;5.55;;;13.30;99.90;;;;;;5051720;28;20049;-61
2021/01/22 00:32:21;;;;;;;16.13;5.15;;;13.30;99.90;;;;;;5053174;28;20514;-60
2021/01/22 00:34:48;;;;;;;17.02;5.28;;;13.30;99.90;;;;;;5036319;28;20050;-60
2021/01/22 00:37:16;;;;;;;18.60;5.40;;;13.40;99.90;;;;;;5035222;28;20046;-60
2021/01/22 00:39:43;;;;;;;21.40;5.65;;;13.40;99.90;;;;;;5036018;28;20115;-59
2021/01/22 00:42:10;;;;;;;15.13;5.07;;;13.40;99.90;;;;;;5036086;28;20450;-60
2021/01/22 00:44:37;;;;;;;14.35;5.32;;;13.40;99.90;;;;;;5045585;28;20057;-60
2021/01/22 00:47:04;;;;;;;25.05;5.82;;;13.40;99.90;;;;;;5055915;28;20110;-60
2021/01/22 00:49:31;;;;;;;14.13;4.72;;;13.40;99.90;;;;;;5040506;28;20053;-60
2021/01/22 00:51:58;;;;;;;15.63;4.72;;;13.40;99.90;;;;;;5035916;28;20056;-60
2021/01/22 00:54:27;;;;;;;20.30;9.05;;;13.40;99.90;;;;;;5034608;28;20080;-60
2021/01/22 00:57:14;;;;;;;;;;;13.40;99.90;;;;;;5036201;28;20049;-60
2021/01/22 00:59:42;;;;;;;18.88;5.47;;;13.40;99.90;;;;;;5036000;28;19963;-60
2021/01/22 01:02:09;;;;;;;16.70;5.80;;;13.40;99.90;;;;;;5035930;28;20049;-60
2021/01/22 01:04:36;;;;;;;24.00;6.35;;;13.40;99.90;;;;;;5034576;28;20060;-60
2021/01/22 01:07:11;;;;;;;11.93;5.05;;;13.40;99.90;;;;;;5035656;28;20108;-60
2021/01/22 01:09:42;;;;;;;14.63;6.95;;;13.40;99.90;;;;;;5034528;28;20052;-60
2021/01/22 01:12:32;;;;;;;18.02;4.82;;;13.40;99.90;;;;;;5032666;28;20050;-60
2021/01/22 01:15:21;;;;;;;9.18;4.65;;;13.30;99.90;;;;;;5035215;28;20048;-60
2021/01/22 01:17:49;;;;;;;9.85;4.45;;;13.30;99.90;;;;;;5035469;28;20057;-60
2021/01/22 01:20:16;;;;;;;17.15;5.43;;;13.30;99.90;;;;;;5035425;28;20107;-60
2021/01/22 01:22:43;;;;;;;10.27;4.10;;;13.30;99.90;;;;;;5035403;28;20054;-60
2021/01/22 01:25:10;;;;;;;15.07;5.28;;;13.30;99.90;;;;;;5035408;28;20533;-61
2021/01/22 01:27:37;;;;;;;15.32;5.93;;;13.30;99.90;;;;;;5035641;28;20054;-60
2021/01/22 01:30:05;;;;;;;17.88;5.07;;;13.30;99.90;;;;;;5035139;28;20050;-60
2021/01/22 01:32:33;;;;;;;21.23;5.60;;;13.30;99.90;;;;;;5034518;28;20049;-60
2021/01/22 01:35:00;;;;;;;22.45;6.72;;;13.30;99.90;;;;;;5035094;28;20069;-60
2021/01/22 01:37:28;;;;;;;9.90;5.03;;;13.30;99.90;;;;;;5033885;28;20057;-60
2021/01/22 01:39:55;;;;;;;13.82;5.18;;;13.30;99.90;;;;;;5035006;28;20041;-60
2021/01/22 01:42:23;;;;;;;15.90;5.18;;;13.30;99.90;;;;;;5034933;28;20045;-60
2021/01/22 01:44:50;;;;;;;14.88;4.80;;;13.30;99.90;;;;;;5035121;28;20151;-60
2021/01/22 01:47:17;;;;;;;18.70;6.13;;;13.20;99.90;;;;;;5034899;28;20132;-60
2021/01/22 01:49:44;;;;;;;17.30;4.80;;;13.30;99.90;;;;;;5034596;28;20512;-60
2021/01/22 01:52:12;;;;;;;14.45;4.07;;;13.20;99.90;;;;;;5035021;28;20087;-60
2021/01/22 01:54:40;;;;;;;13.90;4.63;;;13.20;99.90;;;;;;5036992;28;20495;-59
2021/01/22 01:57:08;;;;;;;11.23;3.90;;;13.20;99.90;;;;;;5043280;28;20498;-60
2021/01/22 01:59:35;;;;;;;10.57;3.45;;;13.20;99.90;;;;;;5054318;28;20071;-60
2021/01/22 02:02:02;;;;;;;14.25;4.90;;;13.20;99.90;;;;;;5054468;28;20110;-60
2021/01/22 02:04:29;;;;;;;17.25;4.00;;;13.20;99.90;;;;;;5054410;28;20056;-60
2021/01/22 02:06:57;;;;;;;16.17;3.92;;;13.20;99.90;;;;;;5054512;28;20522;-60
2021/01/22 02:09:24;;;;;;;17.02;3.80;;;13.10;99.90;;;;;;5054469;28;20144;-60
2021/01/22 02:11:51;;;;;;;17.08;4.35;;;13.20;99.90;;;;;;5054321;28;20045;-60
2021/01/22 02:14:19;;;;;;;12.45;5.75;;;13.20;99.90;;;;;;5054382;28;20045;-60
2021/01/22 02:16:46;;;;;;;13.38;5.07;;;13.10;99.90;;;;;;5054338;28;20098;-60
2021/01/22 02:19:16;;;;;;;16.65;6.68;;;13.10;99.90;;;;;;5054131;28;20053;-60
2021/01/22 02:21:43;;;;;;;13.57;4.57;;;13.10;99.90;;;;;;5053098;28;20498;-60
2021/01/22 02:24:16;;;;;;;20.38;6.57;;;13.00;99.90;;;;;;5054184;28;20053;-60
2021/01/22 02:26:45;;;;;;;11.73;4.70;;;13.10;99.90;;;;;;5054080;28;20052;-60
2021/01/22 02:29:14;;;;;;;10.88;4.22;;;13.10;99.90;;;;;;5052921;28;20049;-60
2021/01/22 02:31:44;;;;;;;16.23;4.45;;;13.10;99.90;;;;;;5036273;28;20529;-60
2021/01/22 02:34:15;;;;;;;13.10;3.60;;;13.20;99.90;;;;;;5054105;28;20053;-60
2021/01/22 02:36:45;;;;;;;13.50;5.13;;;13.20;99.90;;;;;;5054061;28;20073;-60
2021/01/22 02:39:16;;;;;;;12.18;5.57;;;13.10;99.90;;;;;;5054027;28;20056;-60
2021/01/22 02:41:45;;;;;;;15.63;5.50;;;13.10;99.90;;;;;;5053825;28;20056;-60
2021/01/22 02:44:13;;;;;;;19.33;4.38;;;13.20;99.90;;;;;;5052544;28;20052;-60
2021/01/22 02:46:41;;;;;;;14.23;4.22;;;13.10;99.90;;;;;;5053779;28;20102;-60
2021/01/22 02:49:08;;;;;;;11.95;4.30;;;13.10;99.90;;;;;;5052639;28;20044;-60
2021/01/22 02:51:35;;;;;;;12.77;4.90;;;13.10;99.90;;;;;;5053707;28;20045;-60
2021/01/22 02:54:03;;;;;;;10.50;4.45;;;13.10;99.90;;;;;;5046615;28;20046;-61
2021/01/22 02:56:40;;;;;;;15.20;5.95;;;13.10;99.90;;;;;;5033567;28;20061;-60
2021/01/22 02:59:41;;;;;;;11.93;4.57;;;13.10;99.90;;;;;;5033475;28;20123;-60
2021/01/22 03:02:44;;;;;;;21.10;4.43;;;13.10;99.90;;;;;;5033668;28;20504;-60
2021/01/22 03:05:15;;;;;;;18.23;3.33;;;13.10;99.90;;;;;;5020804;28;20057;-60
2021/01/22 03:08:08;;;;;;;10.15;4.18;;;13.10;99.90;;;;;;5033587;28;20128;-60
2021/01/22 03:10:37;;;;;;;17.10;5.40;;;13.10;99.90;;;;;;5033537;28;20507;-60
2021/01/22 03:13:05;;;;;;;18.30;5.47;;;13.10;99.90;;;;;;5033526;28;20084;-60
2021/01/22 03:15:36;;;;;;;10.57;3.97;;;13.10;99.90;;;;;;5033479;28;20044;-59
2021/01/22 03:18:17;;;;;;;13.68;4.50;;;13.10;99.90;;;;;;5033657;28;20053;-60
2021/01/22 03:20:46;;;;;;;20.48;6.50;;;13.20;99.90;;;;;;5033520;28;20049;-60
2021/01/22 03:23:15;;;;;;;11.07;3.83;;;13.20;99.90;;;;;;5033340;28;20136;-60
2021/01/22 03:25:43;;;;;;;12.68;3.97;;;13.20;99.90;;;;;;5033488;28;20502;-60
2021/01/22 03:28:10;;;;;;;18.40;4.28;;;13.20;99.90;;;;;;5033276;28;20049;-59
2021/01/22 03:30:38;;;;;;;12.27;3.15;;;13.10;99.90;;;;;;5033469;28;20107;-60
2021/01/22 03:33:05;;;;;;;15.07;4.50;;;13.10;99.90;;;;;;5032177;28;20069;-60
2021/01/22 03:35:32;;;;;;;8.02;3.65;;;13.20;99.90;;;;;;5033318;28;20457;-60
2021/01/22 03:37:59;;;;;;;13.20;4.05;;;13.10;99.90;;;;;;5033246;28;20050;-60
2021/01/22 03:40:27;;;;;;;12.50;4.25;;;13.10;99.90;;;;;;5033172;28;20053;-60
2021/01/22 03:42:54;;;;;;;17.70;6.63;;;13.10;99.90;;;;;;5033175;28;20053;-60
2021/01/22 03:45:21;;;;;;;12.40;4.03;;;13.00;99.90;;;;;;5033309;28;20041;-60
2021/01/22 03:47:48;;;;;;;12.75;4.90;;;13.00;99.90;;;;;;5033275;28;20048;-60
2021/01/22 03:50:15;;;;;;;17.13;4.63;;;13.00;99.90;;;;;;5033217;28;20124;-60
2021/01/22 03:52:42;;;;;;;14.52;5.32;;;13.00;99.90;;;;;;5033018;28;20045;-60
2021/01/22 03:55:09;;;;;;;15.35;4.03;;;13.00;99.90;;;;;;5033021;28;20053;-60
2021/01/22 03:57:36;;;;;;;15.07;4.70;;;13.00;99.90;;;;;;5031951;28;20053;-60
2021/01/22 04:00:05;;;;;;;18.23;5.97;;;13.00;99.90;;;;;;5031878;28;20396;-60
2021/01/22 04:02:33;;;;;;;13.93;5.00;;;13.00;99.90;;;;;;5033101;28;20049;-60
2021/01/22 04:05:00;;;;;;;17.75;4.90;;;13.00;99.90;;;;;;5033022;28;20045;-60
2021/01/22 04:07:27;;;;;;;14.45;3.97;;;13.00;99.90;;;;;;5033178;28;20042;-61
2021/01/22 04:09:54;;;;;;;13.73;4.95;;;13.00;99.90;;;;;;5033059;28;20071;-60
2021/01/22 04:12:21;;;;;;;12.23;4.10;;;13.00;99.90;;;;;;5035462;28;20048;-60
2021/01/22 04:14:48;;;;;;;15.32;5.25;;;13.00;99.90;;;;;;5036715;28;20128;-60
2021/01/22 04:17:15;;;;;;;16.02;6.30;;;13.00;99.90;;;;;;5036768;28;20041;-60
2021/01/22 04:19:45;;;;;;;11.75;4.75;;;13.00;99.90;;;;;;5036569;28;20496;-60
2021/01/22 04:22:12;;;;;;;12.15;4.78;;;13.00;99.90;;;;;;5036398;28;20056;-60
2021/01/22 04:24:39;;;;;;;10.35;5.32;;;13.00;99.90;;;;;;5036361;28;20526;-60
2021/01/22 04:27:07;;;;;;;18.55;4.68;;;13.00;99.90;;;;;;5036562;28;20048;-60
2021/01/22 04:29:34;;;;;;;18.13;5.13;;;13.00;99.90;;;;;;5036400;28;20053;-60
2021/01/22 04:32:01;;;;;;;16.45;4.90;;;13.00;99.90;;;;;;5036228;28;20053;-60
2021/01/22 04:34:28;;;;;;;13.90;4.47;;;12.90;99.90;;;;;;5036229;28;20048;-60
2021/01/22 04:36:55;;;;;;;14.63;5.68;;;13.00;99.90;;;;;;5019106;28;20049;-60
2021/01/22 04:39:22;;;;;;;13.70;5.85;;;12.90;99.90;;;;;;5018681;28;20552;-59
2021/01/22 04:41:51;;;;;;;14.20;4.60;;;12.90;99.90;;;;;;5035097;28;20148;-60
2021/01/22 04:44:18;;;;;;;17.58;4.47;;;12.90;99.90;;;;;;5036229;28;20060;-60
2021/01/22 04:46:45;;;;;;;13.35;5.63;;;12.90;99.90;;;;;;5036069;28;20045;-60
2021/01/22 04:49:13;;;;;;;16.58;4.78;;;12.90;99.90;;;;;;5035918;28;20049;-60
2021/01/22 04:51:41;;;;;;;16.48;6.35;;;12.90;99.90;;;;;;5035961;28;20076;-60
2021/01/22 04:54:17;;;;;;;13.65;4.55;;;12.90;99.90;;;;;;5035918;28;20046;-60
2021/01/22 04:56:46;;;;;;;27.00;6.28;;;12.90;99.90;;;;;;5036088;28;20037;-60
2021/01/22 04:59:21;;;;;;;24.55;6.35;;;12.90;99.90;;;;;;5035615;28;20053;-60
2021/01/22 05:01:49;;;;;;;14.60;5.07;;;12.90;99.90;;;;;;5035866;28;20148;-60
2021/01/22 05:04:17;;;;;;;15.18;4.47;;;12.90;99.90;;;;;;5035848;28;20128;-60
2021/01/22 05:06:48;;;;;;;12.07;4.38;;;12.90;99.90;;;;;;5053697;28;20040;-60
2021/01/22 05:09:15;;;;;;;15.93;5.25;;;12.90;99.90;;;;;;5047448;28;20406;-60
2021/01/22 05:11:42;;;;;;;11.02;4.28;;;12.90;99.90;;;;;;5035566;28;20057;-60
2021/01/22 05:14:10;;;;;;;11.40;5.70;;;13.00;99.90;;;;;;5034364;28;20107;-60
2021/01/22 05:16:37;;;;;;;12.35;3.63;;;12.90;99.90;;;;;;5035414;28;20408;-60
2021/01/22 05:19:34;;;;;;;18.05;5.38;;;12.90;99.90;;;;;;5035408;28;20049;-60
2021/01/22 05:22:02;;;;;;;;;;;13.00;99.90;;;;;;5020008;28;20057;-60
2021/01/22 05:24:30;;;;;;;17.63;4.70;;;13.00;99.90;;;;;;5033665;28;20153;-60
2021/01/22 05:27:11;;;;;;;13.18;4.13;;;12.90;99.90;;;;;;5035352;28;20045;-60
2021/01/22 05:29:42;;;;;;;12.18;3.80;;;13.00;99.90;;;;;;5042828;28;20509;-60
2021/01/22 05:32:29;;;;;;;10.88;4.57;;;12.90;99.90;;;;;;5055235;28;20487;-60
2021/01/22 05:34:58;;;;;;;13.63;4.82;;;12.90;99.90;;;;;;5041171;28;20052;-60
2021/01/22 05:37:26;;;;;;;10.55;4.05;;;12.90;99.90;;;;;;5038274;28;20055;-60
2021/01/22 05:40:13;;;;;;;20.63;4.43;;;13.00;99.90;;;;;;5055197;28;20076;-60
2021/01/22 05:42:47;;;;;;;7.22;3.60;;;13.00;99.90;;;;;;5054151;28;20057;-60
2021/01/22 05:45:16;;;;;;;9.77;4.15;;;13.00;99.90;;;;;;5054954;28;20048;-61
2021/01/22 05:47:44;;;;;;;13.77;4.00;;;13.00;99.90;;;;;;5042476;28;20054;-61
2021/01/22 05:50:12;;;;;;;11.63;3.72;;;13.00;99.90;;;;;;5043833;28;20388;-60
2021/01/22 05:52:39;;;;;;;16.70;4.82;;;13.00;99.90;;;;;;5045991;28;20049;-60
2021/01/22 05:55:32;;;;;;;13.45;4.60;;;13.00;99.90;;;;;;5043723;28;20048;-60
2021/01/22 05:57:59;;;;;;;12.32;4.43;;;13.00;99.90;;;;;;5036839;28;20061;-59
2021/01/22 06:00:27;;;;;;;12.27;3.30;;;13.00;99.90;;;;;;5041242;28;20559;-60
2021/01/22 06:02:54;;;;;;;17.75;5.88;;;13.00;99.90;;;;;;5043072;28;20049;-60
2021/01/22 06:05:22;;;;;;;15.32;4.65;;;12.90;99.90;;;;;;5036982;28;20042;-59
2021/01/22 06:08:07;;;;;;;15.07;4.22;;;13.00;99.90;;;;;;5044728;28;20405;-60
2021/01/22 06:10:39;;;;;;;12.98;4.80;;;13.00;99.90;;;;;;5043532;28;20038;-60
2021/01/22 06:13:10;;;;;;;15.50;4.32;;;13.00;99.90;;;;;;5039102;28;20049;-60
2021/01/22 06:15:38;;;;;;;16.92;4.20;;;13.00;99.90;;;;;;5043020;28;20041;-60
2021/01/22 06:18:08;;;;;;;11.52;3.88;;;13.00;99.90;;;;;;5044797;28;20110;-60
2021/01/22 06:20:41;;;;;;;7.05;3.63;;;13.00;99.90;;;;;;5042409;28;20111;-60
2021/01/22 06:23:15;;;;;;;13.13;4.20;;;13.10;99.90;;;;;;5054266;28;20052;-60
2021/01/22 06:25:44;;;;;;;24.80;10.60;;;13.00;99.90;;;;;;5054144;28;20049;-60
2021/01/22 06:28:11;;;;;;;28.38;11.63;;;13.10;99.90;;;;;;5052448;28;20062;-60
2021/01/22 06:30:42;;;;;;;23.45;11.55;;;13.10;99.90;;;;;;5048162;28;20048;-61
2021/01/22 06:33:10;;;;;;;13.38;5.72;;;13.10;99.90;;;;;;5046994;28;20051;-60
2021/01/22 06:35:43;;;;;;;13.90;5.43;;;13.10;99.90;;;;;;5043967;28;20486;-60
2021/01/22 06:38:10;;;;;;;19.15;4.93;;;13.10;99.90;;;;;;5032990;28;20054;-61
2021/01/22 06:40:37;;;;;;;10.23;4.95;;;13.20;99.90;;;;;;5032811;28;20057;-60
2021/01/22 06:43:08;;;;;;;13.60;5.25;;;13.10;99.90;;;;;;5032469;28;20053;-60
2021/01/22 06:45:35;;;;;;;17.95;6.13;;;13.20;99.90;;;;;;5033576;28;20458;-60
2021/01/22 06:48:08;;;;;;;17.70;5.45;;;13.20;99.90;;;;;;5033770;28;20049;-60
2021/01/22 06:50:37;;;;;;;12.85;4.45;;;13.20;99.90;;;;;;5033817;28;20507;-60
2021/01/22 06:53:12;;;;;;;11.88;4.10;;;13.20;99.90;;;;;;5033767;28;20195;-60
2021/01/22 06:55:54;;;;;;;12.48;4.72;;;13.20;99.90;;;;;;5032735;28;20049;-60
2021/01/22 06:58:28;;;;;;;14.93;6.15;;;13.20;99.90;;;;;;5032445;28;20057;-60
2021/01/22 07:01:00;;;;;;;19.10;4.72;;;13.30;99.90;;;;;;5033667;28;20050;-60
2021/01/22 07:03:37;;;;;;;11.40;5.38;;;13.30;99.90;;;;;;5033689;28;20132;-60
2021/01/22 07:06:27;;;;;;;14.88;4.75;;;13.30;99.90;;;;;;5033575;28;20403;-61
2021/01/22 07:08:55;;;;;;;18.05;5.15;;;13.30;99.90;;;;;;5033686;28;20045;-60
2021/01/22 07:11:23;;;;;;;13.80;4.60;;;13.30;99.90;;;;;;5033477;28;20127;-60
2021/01/22 07:13:52;;;;;;;11.77;4.97;;;13.40;99.90;;;;;;5033406;28;20052;-60
2021/01/22 07:16:19;;;;;;;12.88;4.85;;;13.40;99.90;;;;;;5032309;28;20124;-60
2021/01/22 07:18:57;;;;;;;19.27;6.13;;;13.40;99.90;;;;;;5032252;28;20064;-60
2021/01/22 07:21:24;;;;;;;13.68;5.10;;;13.40;99.90;;;;;;5016135;28;20104;-60
2021/01/22 07:23:56;;;;;;;12.93;5.55;;;13.40;99.90;;;;;;5033378;28;20049;-60
2021/01/22 07:26:33;;;;;;;12.80;5.18;;;13.40;99.90;;;;;;5033353;28;20073;-58
2021/01/22 07:29:27;;;;;;;16.90;4.93;;;13.50;99.90;;;;;;5033430;28;20060;-58
2021/01/22 07:32:05;;;;;;;17.52;5.53;;;13.60;99.90;;;;;;5033407;28;20049;-58
2021/01/22 07:34:50;;;;;;;13.35;4.97;;;13.50;99.90;;;;;;5033357;28;20544;-59
2021/01/22 07:37:25;;;;;;;13.20;5.60;;;13.60;99.90;;;;;;5032061;28;20480;-59
2021/01/22 07:39:54;;;;;;;11.15;4.15;;;13.70;99.90;;;;;;5032213;28;20518;-59
2021/01/22 07:42:26;;;;;;;11.48;5.25;;;13.70;99.90;;;;;;5033361;28;20054;-59
2021/01/22 07:45:03;;;;;;;13.02;4.03;;;13.80;99.90;;;;;;5033335;28;20056;-59
2021/01/22 07:47:31;;;;;;;;;;;13.80;99.90;;;;;;5036685;28;20060;-59
2021/01/22 07:50:01;;;;;;;16.88;4.00;;;13.90;99.90;;;;;;5037163;28;19953;-59
2021/01/22 07:52:29;;;;;;;15.70;4.55;;;13.90;99.90;;;;;;5035865;28;20104;-59
2021/01/22 07:54:57;;;;;;;13.52;5.03;;;14.10;99.90;;;;;;5037176;28;20388;-59
2021/01/22 07:57:26;;;;;;;13.05;3.60;;;14.20;99.90;;;;;;5037026;28;20045;-60
2021/01/22 07:59:53;;;;;;;15.50;4.70;;;14.40;99.90;;;;;;5036838;28;20439;-59
2021/01/22 08:02:22;;;;;;;7.95;3.90;;;14.50;99.90;;;;;;5036845;28;20061;-60
2021/01/22 08:04:58;;;;;;;9.70;3.80;;;14.60;99.90;;;;;;5036793;28;20129;-59
2021/01/22 08:07:39;;;;;;;9.63;3.57;;;14.70;99.90;;;;;;5035655;28;20055;-59
2021/01/22 08:10:13;;;;;;;15.23;4.13;;;14.90;99.90;;;;;;5036862;28;20104;-59
2021/01/22 08:12:55;;;;;;;12.20;5.57;;;15.10;99.90;;;;;;5036756;28;20045;-59
2021/01/22 08:15:23;;;;;;;19.83;6.03;;;15.10;99.90;;;;;;5036730;28;20128;-59
2021/01/22 08:17:51;;;;;;;13.65;5.60;;;15.20;99.90;;;;;;5036574;28;20050;-59
2021/01/22 08:20:22;;;;;;;10.85;4.07;;;15.30;99.90;;;;;;5035579;28;20041;-59
2021/01/22 08:22:54;;;;;;;7.70;3.22;;;15.30;99.90;;;;;;5036582;28;20446;-61
2021/01/22 08:25:40;;;;;;;10.52;4.45;;;15.50;99.90;;;;;;5035617;28;20049;-59
2021/01/22 08:28:09;;;;;;;11.77;3.35;;;15.50;99.90;;;;;;5019206;28;20065;-60
2021/01/22 08:30:37;;;;;;;15.55;3.60;;;15.50;99.90;;;;;;5036611;28;20045;-61
2021/01/22 08:33:06;;;;;;;12.63;4.15;;;15.40;99.90;;;;;;5035345;28;20043;-61
2021/01/22 08:35:34;;;;;;;10.30;3.13;;;15.50;99.90;;;;;;5035246;28;20460;-61
2021/01/22 08:38:01;;;;;;;13.10;4.78;;;15.50;99.90;;;;;;5036261;28;20073;-60
2021/01/22 08:40:39;;;;;;;13.35;4.00;;;15.40;99.90;;;;;;5036095;28;20038;-60
2021/01/22 08:43:12;;;;;;;36.10;6.35;;;15.40;99.90;;;;;;5036655;28;20492;-59
2021/01/22 08:45:41;;;;;;;11.18;4.40;;;15.40;99.90;;;;;;5035074;28;20141;-59
2021/01/22 08:48:09;;;;;;;10.25;3.20;;;15.40;99.90;;;;;;5034972;28;20052;-60
2021/01/22 08:50:38;;;;;;;9.75;4.28;;;15.40;99.90;;;;;;5034636;28;20050;-60
2021/01/22 08:53:10;;;;;;;7.22;2.33;;;15.30;99.90;;;;;;5035767;28;20132;-59
2021/01/22 08:55:37;;;;;;;9.82;3.60;;;15.20;99.90;;;;;;5035758;28;20049;-60
2021/01/22 08:58:12;;;;;;;8.20;3.75;;;15.20;99.90;;;;;;5033475;28;20457;-60
2021/01/22 09:00:40;;;;;;;7.28;2.92;;;15.20;99.90;;;;;;5034678;28;20498;-60
2021/01/22 09:03:23;;;;;;;11.35;3.45;;;15.30;99.90;;;;;;5035539;28;20049;-59
2021/01/22 09:05:51;;;;;;;9.38;3.95;;;15.20;99.90;;;;;;5035524;28;20049;-59
2021/01/22 09:08:23;;;;;;;11.57;4.05;;;15.30;99.90;;;;;;5018071;28;20053;-59
2021/01/22 09:10:50;;;;;;;10.98;3.28;;;15.60;99.90;;;;;;5034332;28;20080;-59
2021/01/22 09:13:25;;;;;;;11.20;3.95;;;15.70;99.90;;;;;;5035261;28;20488;-59
2021/01/22 09:16:06;;;;;;;12.88;3.88;;;15.70;99.90;;;;;;5035279;28;20510;-59
2021/01/22 09:18:33;;;;;;;10.75;4.55;;;15.70;99.90;;;;;;5035302;28;20487;-59
2021/01/22 09:21:05;;;;;;;16.55;6.00;;;15.60;99.90;;;;;;5035329;28;20048;-59
2021/01/22 09:23:36;;;;;;;11.60;3.45;;;15.40;99.90;;;;;;5034135;28;20045;-59
2021/01/22 09:26:04;;;;;;;9.48;4.78;;;15.50;99.90;;;;;;5017794;28;20057;-59
2021/01/22 09:28:31;;;;;;;8.38;3.67;;;15.50;99.90;;;;;;5034994;28;20053;-59
2021/01/22 09:30:59;;;;;;;11.23;5.07;;;15.50;99.90;;;;;;5035002;28;20144;-59
2021/01/22 09:33:27;;;;;;;15.75;3.97;;;15.50;99.90;;;;;;5033829;28;20045;-59
2021/01/22 09:35:54;;;;;;;11.07;3.63;;;15.50;99.90;;;;;;5034995;28;20091;-59
2021/01/22 09:38:25;;;;;;;6.15;3.20;;;15.50;99.90;;;;;;5034949;28;20049;-59
2021/01/22 09:40:53;;;;;;;12.45;4.45;;;15.60;99.90;;;;;;5034769;28;20054;-59
2021/01/22 09:43:20;;;;;;;15.05;4.43;;;15.70;99.90;;;;;;5034755;28;20053;-59
2021/01/22 09:45:51;;;;;;;10.52;3.38;;;15.60;99.90;;;;;;5034780;28;20502;-59
2021/01/22 09:48:18;;;;;;;10.27;3.28;;;15.60;99.90;;;;;;5034765;28;20049;-59
2021/01/22 09:50:49;;;;;;;12.68;4.20;;;15.50;99.90;;;;;;5033537;28;20073;-59
2021/01/22 09:53:17;;;;;;;10.13;4.18;;;15.40;99.90;;;;;;5034526;28;20037;-59
2021/01/22 09:55:51;;;;;;;12.70;3.45;;;15.40;99.90;;;;;;5034551;28;20054;-59
2021/01/22 09:58:19;;;;;;;11.70;4.10;;;15.40;99.90;;;;;;5032957;28;20060;-59
2021/01/22 10:00:46;;;;;;;8.68;4.13;;;15.40;99.90;;;;;;5034260;28;20053;-60
2021/01/22 10:03:13;;;;;;;9.35;4.53;;;15.40;99.90;;;;;;5033306;28;20064;-59
2021/01/22 10:05:42;;;;;;;10.70;3.92;;;15.40;99.90;;;;;;5034372;28;20045;-58
2021/01/22 10:08:10;;;;;;;13.00;4.10;;;15.50;99.90;;;;;;5033085;28;20068;-58
2021/01/22 10:10:37;;;;;;;9.40;3.60;;;15.50;99.90;;;;;;5032938;28;20100;-58
2021/01/22 10:13:06;;;;;;;9.20;3.33;;;15.70;99.90;;;;;;5033997;28;20037;-58
2021/01/22 10:15:33;;;;;;;6.97;3.25;;;15.80;99.90;;;;;;5032872;28;20048;-58
2021/01/22 10:18:00;;;;;;;9.48;2.90;;;15.80;99.90;;;;;;5034057;28;20175;-59
2021/01/22 10:20:28;;;;;;;5.53;2.30;;;15.90;99.90;;;;;;5033891;28;20057;-60
2021/01/22 10:22:56;;;;;;;10.23;3.65;;;16.20;99.90;;;;;;5032821;28;20049;-60
2021/01/22 10:25:26;;;;;;;6.75;2.83;;;16.30;99.90;;;;;;5032844;28;20053;-60
2021/01/22 10:27:53;;;;;;;8.43;3.60;;;16.40;99.90;;;;;;5034108;28;20079;-60
2021/01/22 10:30:21;;;;;;;5.43;2.72;;;16.30;99.90;;;;;;5016555;28;20566;-60
2021/01/22 10:32:48;;;;;;;6.78;2.80;;;16.20;99.90;;;;;;5016342;28;20067;-60
2021/01/22 10:35:16;;;;;;;9.40;3.58;;;16.20;99.90;;;;;;5033724;28;20412;-59
2021/01/22 10:37:43;;;;;;;12.23;3.03;;;16.00;99.90;;;;;;5033756;28;20399;-60
2021/01/22 10:40:11;;;;;;;4.35;2.55;;;15.80;99.90;;;;;;5032701;28;20121;-60
2021/01/22 10:42:38;;;;;;;9.43;3.45;;;15.80;99.90;;;;;;5032459;28;20060;-59
2021/01/22 10:45:06;;;;;;;8.60;3.50;;;15.60;99.90;;;;;;5032551;28;20052;-59
2021/01/22 10:47:34;;;;;;;9.25;3.60;;;15.60;99.90;;;;;;5033727;28;20073;-58
2021/01/22 10:50:04;;;;;;;7.95;3.33;;;15.70;99.90;;;;;;5033638;28;20107;-59
2021/01/22 10:52:31;;;;;;;7.78;3.80;;;15.70;99.90;;;;;;5033492;28;20053;-60
2021/01/22 10:55:01;;;;;;;8.77;3.90;;;15.80;99.90;;;;;;5032323;28;20139;-59
2021/01/22 10:57:28;;;;;;;9.05;3.45;;;15.90;99.90;;;;;;5016277;28;20053;-60
2021/01/22 10:59:56;;;;;;;13.88;3.30;;;16.00;99.90;;;;;;5032156;28;20057;-60
2021/01/22 11:02:27;;;;;;;12.50;3.58;;;16.00;99.90;;;;;;5000565;28;20137;-60
2021/01/22 11:04:54;;;;;;;15.95;4.15;;;16.20;99.90;;;;;;5033241;28;20119;-59
2021/01/22 11:07:21;;;;;;;8.07;4.20;;;16.10;99.90;;;;;;5033187;28;20435;-59
2021/01/22 11:09:49;;;;;;;14.90;3.58;;;16.20;99.90;;;;;;5032564;28;20492;-59
2021/01/22 11:12:16;;;;;;;11.63;4.35;;;16.20;99.90;;;;;;5033126;28;20077;-59
2021/01/22 11:14:47;;;;;;;9.35;4.80;;;16.20;99.90;;;;;;5033221;28;20080;-60
2021/01/22 11:17:14;;;;;;;20.50;5.88;;;16.20;99.90;;;;;;5033150;28;20105;-60
2021/01/22 11:19:43;;;;;;;9.38;4.53;;;16.30;99.90;;;;;;5033188;28;20100;-60
2021/01/22 11:22:13;;;;;;;13.35;4.18;;;16.30;99.90;;;;;;5032578;28;20065;-60
2021/01/22 11:24:40;;;;;;;18.73;4.80;;;16.30;99.90;;;;;;5033218;28;20057;-60
2021/01/22 11:27:08;;;;;;;12.55;4.25;;;16.30;99.90;;;;;;5033299;28;20108;-60
2021/01/22 11:29:40;;;;;;;9.10;4.00;;;16.30;99.90;;;;;;5033093;28;20045;-59
2021/01/22 11:32:07;;;;;;;12.50;3.28;;;16.30;99.90;;;;;;5033109;28;20084;-59
2021/01/22 11:34:34;;;;;;;15.65;3.72;;;16.40;99.90;;;;;;5032937;28;20137;-59
2021/01/22 11:37:02;;;;;;;9.40;2.75;;;16.50;99.90;;;;;;5032941;28;20053;-59
2021/01/22 11:39:30;;;;;;;9.45;3.25;;;16.60;99.90;;;;;;5031857;28;20092;-59
2021/01/22 11:41:58;;;;;;;11.70;4.05;;;16.50;99.90;;;;;;5032981;28;20041;-59
2021/01/22 11:44:26;;;;;;;9.95;3.85;;;16.50;99.90;;;;;;5032862;28;20559;-60
2021/01/22 11:46:54;;;;;;;14.48;5.75;;;16.60;99.90;;;;;;5033193;28;20092;-59
2021/01/22 11:49:21;;;;;;;15.65;6.13;;;16.40;99.90;;;;;;5031550;28;20052;-60
2021/01/22 11:51:49;;;;;;;10.35;4.43;;;16.50;99.90;;;;;;5033008;28;20135;-60
2021/01/22 11:54:16;;;;;;;13.45;3.63;;;16.40;99.90;;;;;;5032356;28;20041;-59
2021/01/22 11:56:47;;;;;;;9.80;3.80;;;16.40;99.90;;;;;;5032573;28;20060;-60
2021/01/22 11:59:14;;;;;;;12.00;3.53;;;16.20;99.90;;;;;;5032558;28;20553;-60
2021/01/22 12:01:41;;;;;;;17.73;4.30;;;16.20;99.90;;;;;;5032850;28;20483;-59
2021/01/22 12:04:08;;;;;;;11.05;4.07;;;16.20;99.90;;;;;;5032791;28;20046;-59
2021/01/22 12:06:36;;;;;;;15.15;5.25;;;16.20;99.90;;;;;;5032972;28;20395;-60
2021/01/22 12:09:04;;;;;;;7.00;3.58;;;16.30;99.90;;;;;;5032901;28;20041;-59
2021/01/22 12:11:32;;;;;;;15.18;5.10;;;16.40;99.90;;;;;;5032777;28;20049;-59
2021/01/22 12:14:02;;;;;;;13.60;4.75;;;16.50;99.90;;;;;;5032796;28;20056;-59
2021/01/22 12:16:30;;;;;;;13.38;5.07;;;16.50;99.90;;;;;;5032623;28;20050;-60
2021/01/22 12:18:57;;;;;;;16.55;4.35;;;16.40;99.90;;;;;;5032839;28;20049;-60
2021/01/22 12:21:24;;;;;;;11.38;4.38;;;16.30;99.90;;;;;;5031499;28;20045;-60
2021/01/22 12:23:51;;;;;;;16.40;5.28;;;16.20;99.90;;;;;;5031504;28;20073;-60
2021/01/22 12:26:18;;;;;;;8.70;4.97;;;16.10;99.90;;;;;;5032608;28;20073;-60
2021/01/22 12:28:47;;;;;;;11.90;5.32;;;16.20;99.90;;;;;;5032496;28;20128;-60
2021/01/22 12:31:17;;;;;;;16.58;5.32;;;16.20;99.90;;;;;;5031468;28;20129;-60
2021/01/22 12:33:44;;;;;;;15.63;6.18;;;16.10;99.90;;;;;;5033077;28;20055;-60
2021/01/22 12:36:12;;;;;;;16.83;6.32;;;16.00;99.90;;;;;;5018634;28;20179;-60
2021/01/22 12:38:39;;;;;;;15.50;5.07;;;15.90;99.90;;;;;;5036164;28;20045;-60
2021/01/22 12:41:07;;;;;;;11.20;4.32;;;15.80;99.90;;;;;;5034606;28;20511;-59
2021/01/22 12:43:34;;;;;;;17.67;5.72;;;15.80;99.90;;;;;;5035939;28;20053;-59
2021/01/22 12:46:01;;;;;;;18.27;3.97;;;15.90;99.90;;;;;;5035728;28;20136;-59
2021/01/22 12:48:31;;;;;;;11.23;7.15;;;15.80;99.90;;;;;;5034907;28;20049;-59
2021/01/22 12:50:58;;;;;;;14.82;4.85;;;15.90;99.90;;;;;;5035782;28;20068;-59